PWSweather.com
Personal Weather Stations
Station Observations
WATERF01
WaterfordIE

WaterfordIE

Lat: 52.2412507, Lon: -7.1414691

Elevation: 65

Station Type: Davis Vantage Vue

Latest ConditionsUpdated 3:20:00 PM GMT Monday, Apr 27, 2015
Currently Today's Max Today's Min Today's Average
Temperature 45.3°F7.4°C 50.9°F10.5°C 38.3°F3.5°C 43.2°F6.2°C
Dew Point 39.1°F3.9°C 39.9°F4.4°C 31.3°F-0.4°C 35.9°F2.2°C
Winds 5.8 mph WNW9.3 kmh WNW 13.8 mph NW22.2 kmh NW - 5.2 mph 8.4 kmh
Wind Gusts 8.1 mph13.0 kmh 21.9 mph35.2 kmh - -
Humidity 79% 86% 52% 76%
Pressure 29.87 in1011.5 mb 29.93 in1013.5 mb 29.86 in1011.2 mb -
Precipitation - 0.01 in0.3 mm - -
Hour Temp Dew Point Humidity Winds Wind Gusts Pressure Precip Precip Rate Daily Precip Total
03:20 PM 45.3°F7.4°C 39.1°F3.9°C 79% 5.8 mph WNW9.3 kmh WNW 8.1 mph13.0 kmh 29.87 in1011.5 mb - 0.00 in0.0 mm 0.01 in0.3 mm
03:10 PM 43.3°F6.3°C 38.5°F3.6°C 83% 2.3 mph W3.7 kmh W 5.8 mph9.3 kmh 29.88 in1011.9 mb - 0.01 in0.3 mm 0.01 in0.3 mm
03:00 PM 43.1°F6.2°C 38.3°F3.5°C 83% 4.6 mph NW7.4 kmh NW 6.9 mph11.1 kmh 29.88 in1011.9 mb - 0.00 in0.0 mm 0.00 in0.0 mm
02:50 PM 43.9°F6.6°C 37.5°F3.1°C 78% 12.7 mph NW20.4 kmh NW 20.7 mph33.3 kmh 29.89 in1012.2 mb - 0.00 in0.0 mm 0.00 in0.0 mm
02:40 PM 44.7°F7.1°C 36.9°F2.7°C 74% 11.5 mph NW18.5 kmh NW 16.1 mph25.9 kmh 29.88 in1011.9 mb - 0.00 in0.0 mm 0.00 in0.0 mm
02:30 PM 47.1°F8.4°C 38.9°F3.8°C 73% 8.1 mph WNW13.0 kmh WNW 16.1 mph25.9 kmh 29.88 in1011.9 mb - 0.00 in0.0 mm 0.00 in0.0 mm
02:20 PM 46.3°F7.9°C 38.1°F3.4°C 73% 4.6 mph NW7.4 kmh NW 6.9 mph11.1 kmh 29.88 in1011.9 mb - 0.00 in0.0 mm 0.00 in0.0 mm
02:10 PM 45.2°F7.3°C 37.4°F3.0°C 74% 5.8 mph WNW9.3 kmh WNW 11.5 mph18.5 kmh 29.88 in1011.9 mb - 0.00 in0.0 mm 0.00 in0.0 mm
02:00 PM 44.1°F6.7°C 37.0°F2.8°C 76% 8.1 mph WNW13.0 kmh WNW 11.5 mph18.5 kmh 29.87 in1011.5 mb - 0.00 in0.0 mm 0.00 in0.0 mm
01:50 PM 45.5°F7.5°C 37.4°F3.0°C 73% 13.8 mph NW22.2 kmh NW 21.9 mph35.2 kmh 29.88 in1011.9 mb - 0.00 in0.0 mm 0.00 in0.0 mm
01:40 PM 47.2°F8.4°C 37.5°F3.1°C 69% 12.7 mph NW20.4 kmh NW 18.4 mph29.6 kmh 29.88 in1011.9 mb - 0.00 in0.0 mm 0.00 in0.0 mm
01:30 PM 50.9°F10.5°C 36.6°F2.6°C 58% 9.2 mph WNW14.8 kmh WNW 13.8 mph22.2 kmh 29.86 in1011.2 mb - 0.00 in0.0 mm 0.00 in0.0 mm
01:20 PM 49.9°F9.9°C 39.0°F3.9°C 66% 6.9 mph WNW11.1 kmh WNW 11.5 mph18.5 kmh 29.87 in1011.5 mb - 0.00 in0.0 mm 0.00 in0.0 mm
01:10 PM 49.2°F9.6°C 39.5°F4.2°C 69% 6.9 mph NW11.1 kmh NW 11.5 mph18.5 kmh 29.87 in1011.5 mb - 0.00 in0.0 mm 0.00 in0.0 mm
01:00 PM 49.7°F9.8°C 39.9°F4.4°C 69% 5.8 mph WNW9.3 kmh WNW 12.7 mph20.4 kmh 29.87 in1011.5 mb - 0.00 in0.0 mm 0.00 in0.0 mm
12:50 PM 48.6°F9.2°C 39.3°F4.1°C 70% 5.8 mph W9.3 kmh W 12.7 mph20.4 kmh 29.87 in1011.5 mb - 0.00 in0.0 mm 0.00 in0.0 mm
12:40 PM 47.3°F8.5°C 38.7°F3.7°C 72% 4.6 mph W7.4 kmh W 6.9 mph11.1 kmh 29.88 in1011.9 mb - 0.00 in0.0 mm 0.00 in0.0 mm
12:30 PM 46.5°F8.1°C 39.3°F4.1°C 76% 6.9 mph WNW11.1 kmh WNW 11.5 mph18.5 kmh 29.88 in1011.9 mb - 0.00 in0.0 mm 0.00 in0.0 mm
12:20 PM 47.1°F8.4°C 39.6°F4.2°C 75% 8.1 mph WNW13.0 kmh WNW 15.0 mph24.1 kmh 29.88 in1011.9 mb - 0.00 in0.0 mm 0.00 in0.0 mm
12:10 PM 48.0°F8.9°C 39.1°F3.9°C 71% 10.4 mph WSW16.7 kmh WSW 16.1 mph25.9 kmh 29.88 in1011.9 mb - 0.00 in0.0 mm 0.00 in0.0 mm
12:00 PM 48.3°F9.1°C 38.6°F3.7°C 69% 11.5 mph NW18.5 kmh NW 19.6 mph31.5 kmh 29.88 in1011.9 mb - 0.00 in0.0 mm 0.00 in0.0 mm
11:50 AM 48.2°F9.0°C 37.0°F2.8°C 65% 8.1 mph WNW13.0 kmh WNW 13.8 mph22.2 kmh 29.87 in1011.5 mb - 0.00 in0.0 mm 0.00 in0.0 mm
11:40 AM 48.5°F9.2°C 36.5°F2.5°C 63% 5.8 mph WNW9.3 kmh WNW 8.1 mph13.0 kmh 29.87 in1011.5 mb - 0.00 in0.0 mm 0.00 in0.0 mm
11:30 AM 48.6°F9.2°C 36.2°F2.3°C 62% 4.6 mph S7.4 kmh S 10.4 mph16.7 kmh 29.88 in1011.9 mb - 0.00 in0.0 mm 0.00 in0.0 mm
11:20 AM 49.1°F9.5°C 35.4°F1.9°C 59% 5.8 mph WNW9.3 kmh WNW 11.5 mph18.5 kmh 29.88 in1011.9 mb - 0.00 in0.0 mm 0.00 in0.0 mm
11:10 AM 49.5°F9.7°C 36.2°F2.3°C 60% 9.2 mph W14.8 kmh W 15.0 mph24.1 kmh 29.88 in1011.9 mb - 0.00 in0.0 mm 0.00 in0.0 mm
11:00 AM 49.3°F9.6°C 36.0°F2.2°C 60% 4.6 mph SSW7.4 kmh SSW 6.9 mph11.1 kmh 29.88 in1011.9 mb - 0.00 in0.0 mm 0.00 in0.0 mm
10:50 AM 49.2°F9.6°C 35.0°F1.7°C 58% 5.8 mph WSW9.3 kmh WSW 8.1 mph13.0 kmh 29.89 in1012.2 mb - 0.00 in0.0 mm 0.00 in0.0 mm
10:40 AM 50.5°F10.3°C 36.3°F2.4°C 58% 5.8 mph WNW9.3 kmh WNW 8.1 mph13.0 kmh 29.89 in1012.2 mb - 0.00 in0.0 mm 0.00 in0.0 mm
10:30 AM 49.0°F9.4°C 35.3°F1.8°C 59% 4.6 mph WSW7.4 kmh WSW 9.2 mph14.8 kmh 29.89 in1012.2 mb - 0.00 in0.0 mm 0.00 in0.0 mm
10:20 AM 48.5°F9.2°C 34.8°F1.6°C 59% 6.9 mph W11.1 kmh W 11.5 mph18.5 kmh 29.89 in1012.2 mb - 0.00 in0.0 mm 0.00 in0.0 mm
10:10 AM 49.0°F9.4°C 34.0°F1.1°C 56% 5.8 mph W9.3 kmh W 9.2 mph14.8 kmh 29.89 in1012.2 mb - 0.00 in0.0 mm 0.00 in0.0 mm
10:00 AM 48.3°F9.1°C 33.8°F1.0°C 57% 3.5 mph NW5.6 kmh NW 5.8 mph9.3 kmh 29.90 in1012.5 mb - 0.00 in0.0 mm 0.00 in0.0 mm
09:50 AM 49.0°F9.4°C 33.5°F0.8°C 55% 4.6 mph SW7.4 kmh SW 8.1 mph13.0 kmh 29.90 in1012.5 mb - 0.00 in0.0 mm 0.00 in0.0 mm
09:40 AM 48.0°F8.9°C 32.6°F0.3°C 55% 3.5 mph NW5.6 kmh NW 6.9 mph11.1 kmh 29.90 in1012.5 mb - 0.00 in0.0 mm 0.00 in0.0 mm
09:30 AM 48.2°F9.0°C 31.9°F-0.1°C 53% 4.6 mph NNW7.4 kmh NNW 8.1 mph13.0 kmh 29.90 in1012.5 mb - 0.00 in0.0 mm 0.00 in0.0 mm
09:20 AM 48.0°F8.9°C 32.2°F0.1°C 54% 6.9 mph NW11.1 kmh NW 8.1 mph13.0 kmh 29.90 in1012.5 mb - 0.00 in0.0 mm 0.00 in0.0 mm
09:10 AM 48.1°F8.9°C 31.3°F-0.4°C 52% 6.9 mph WNW11.1 kmh WNW 9.2 mph14.8 kmh 29.91 in1012.9 mb - 0.00 in0.0 mm 0.00 in0.0 mm
09:00 AM 47.7°F8.7°C 34.5°F1.4°C 60% 4.6 mph WSW7.4 kmh WSW 8.1 mph13.0 kmh 29.91 in1012.9 mb - 0.00 in0.0 mm 0.00 in0.0 mm
08:50 AM 46.9°F8.3°C 34.5°F1.4°C 62% 4.6 mph WNW7.4 kmh WNW 11.5 mph18.5 kmh 29.91 in1012.9 mb - 0.00 in0.0 mm 0.00 in0.0 mm
08:40 AM 45.9°F7.7°C 37.0°F2.8°C 71% Calm Calm 1.2 mph1.9 kmh 29.91 in1012.9 mb - 0.00 in0.0 mm 0.00 in0.0 mm
08:30 AM 45.3°F7.4°C 37.5°F3.1°C 74% 2.3 mph WNW3.7 kmh WNW 5.8 mph9.3 kmh 29.91 in1012.9 mb - 0.00 in0.0 mm 0.00 in0.0 mm
08:20 AM 44.6°F7.0°C 37.2°F2.9°C 75% 1.2 mph WNW1.9 kmh WNW 2.3 mph3.7 kmh 29.91 in1012.9 mb - 0.00 in0.0 mm 0.00 in0.0 mm
08:10 AM 43.7°F6.5°C 37.3°F2.9°C 78% 3.5 mph NW5.6 kmh NW 6.9 mph11.1 kmh 29.91 in1012.9 mb - 0.00 in0.0 mm 0.00 in0.0 mm
08:00 AM 42.9°F6.1°C 36.9°F2.7°C 79% 3.5 mph NW5.6 kmh NW 5.8 mph9.3 kmh 29.91 in1012.9 mb - 0.00 in0.0 mm 0.00 in0.0 mm
07:50 AM 42.9°F6.1°C 36.5°F2.5°C 78% 3.5 mph WNW5.6 kmh WNW 5.8 mph9.3 kmh 29.91 in1012.9 mb - 0.00 in0.0 mm 0.00 in0.0 mm
07:40 AM 42.5°F5.8°C 36.8°F2.7°C 80% 2.3 mph WNW3.7 kmh WNW 4.6 mph7.4 kmh 29.91 in1012.9 mb - 0.00 in0.0 mm 0.00 in0.0 mm
07:30 AM 41.7°F5.4°C 36.3°F2.4°C 81% 3.5 mph W5.6 kmh W 5.8 mph9.3 kmh 29.91 in1012.9 mb - 0.00 in0.0 mm 0.00 in0.0 mm
07:20 AM 40.7°F4.8°C 35.9°F2.2°C 83% 3.5 mph NNW5.6 kmh NNW 5.8 mph9.3 kmh 29.91 in1012.9 mb - 0.00 in0.0 mm 0.00 in0.0 mm
07:10 AM 40.3°F4.6°C 35.5°F1.9°C 83% 4.6 mph NW7.4 kmh NW 6.9 mph11.1 kmh 29.91 in1012.9 mb - 0.00 in0.0 mm 0.00 in0.0 mm
07:00 AM 39.9°F4.4°C 35.5°F1.9°C 84% 1.2 mph NW1.9 kmh NW 2.3 mph3.7 kmh 29.91 in1012.9 mb - 0.00 in0.0 mm 0.00 in0.0 mm
06:50 AM 39.2°F4.0°C 35.1°F1.7°C 85% 1.2 mph NNW1.9 kmh NNW 2.3 mph3.7 kmh 29.92 in1013.2 mb - 0.00 in0.0 mm 0.00 in0.0 mm
06:40 AM 38.8°F3.8°C 34.9°F1.6°C 86% 2.3 mph NNW3.7 kmh NNW 2.3 mph3.7 kmh 29.91 in1012.9 mb - 0.00 in0.0 mm 0.00 in0.0 mm
06:30 AM 38.5°F3.6°C 34.7°F1.5°C 86% 3.5 mph NW5.6 kmh NW 5.8 mph9.3 kmh 29.91 in1012.9 mb - 0.00 in0.0 mm 0.00 in0.0 mm
06:20 AM 38.3°F3.5°C 34.4°F1.3°C 86% 1.2 mph NW1.9 kmh NW 2.3 mph3.7 kmh 29.92 in1013.2 mb - 0.00 in0.0 mm 0.00 in0.0 mm
06:10 AM 38.4°F3.6°C 34.6°F1.4°C 86% 2.3 mph NNE3.7 kmh NNE 4.6 mph7.4 kmh 29.92 in1013.2 mb - 0.00 in0.0 mm 0.00 in0.0 mm
06:00 AM 38.5°F3.6°C 34.7°F1.5°C 86% 3.5 mph NW5.6 kmh NW 6.9 mph11.1 kmh 29.92 in1013.2 mb - 0.00 in0.0 mm 0.00 in0.0 mm
05:50 AM 38.5°F3.6°C 34.7°F1.5°C 86% 3.5 mph NW5.6 kmh NW 5.8 mph9.3 kmh 29.91 in1012.9 mb - 0.00 in0.0 mm 0.00 in0.0 mm
05:40 AM 38.5°F3.6°C 34.7°F1.5°C 86% 4.6 mph NW7.4 kmh NW 6.9 mph11.1 kmh 29.91 in1012.9 mb - 0.00 in0.0 mm 0.00 in0.0 mm
05:30 AM 38.6°F3.7°C 34.8°F1.6°C 86% 5.8 mph NW9.3 kmh NW 8.1 mph13.0 kmh 29.91 in1012.9 mb - 0.00 in0.0 mm 0.00 in0.0 mm
05:20 AM 38.6°F3.7°C 34.8°F1.6°C 86% 5.8 mph NW9.3 kmh NW 11.5 mph18.5 kmh 29.91 in1012.9 mb - 0.00 in0.0 mm 0.00 in0.0 mm
05:10 AM 38.8°F3.8°C 35.0°F1.7°C 86% 5.8 mph NW9.3 kmh NW 8.1 mph13.0 kmh 29.91 in1012.9 mb - 0.00 in0.0 mm 0.00 in0.0 mm
05:00 AM 38.9°F3.8°C 34.8°F1.6°C 85% 5.8 mph NW9.3 kmh NW 11.5 mph18.5 kmh 29.91 in1012.9 mb - 0.00 in0.0 mm 0.00 in0.0 mm
04:50 AM 38.7°F3.7°C 34.9°F1.6°C 86% 5.8 mph NW9.3 kmh NW 8.1 mph13.0 kmh 29.91 in1012.9 mb - 0.00 in0.0 mm 0.00 in0.0 mm
04:40 AM 38.7°F3.7°C 34.9°F1.6°C 86% 6.9 mph NW11.1 kmh NW 11.5 mph18.5 kmh 29.91 in1012.9 mb - 0.00 in0.0 mm 0.00 in0.0 mm
04:30 AM 38.6°F3.7°C 34.8°F1.6°C 86% 6.9 mph NW11.1 kmh NW 9.2 mph14.8 kmh 29.91 in1012.9 mb - 0.00 in0.0 mm 0.00 in0.0 mm
04:20 AM 38.7°F3.7°C 34.9°F1.6°C 86% 3.5 mph NW5.6 kmh NW 5.8 mph9.3 kmh 29.91 in1012.9 mb - 0.00 in0.0 mm 0.00 in0.0 mm
04:10 AM 38.7°F3.7°C 34.9°F1.6°C 86% 4.6 mph NW7.4 kmh NW 6.9 mph11.1 kmh 29.91 in1012.9 mb - 0.00 in0.0 mm 0.00 in0.0 mm
04:00 AM 38.8°F3.8°C 34.7°F1.5°C 85% 6.9 mph NW11.1 kmh NW 9.2 mph14.8 kmh 29.91 in1012.9 mb - 0.00 in0.0 mm 0.00 in0.0 mm
03:50 AM 39.0°F3.9°C 34.9°F1.6°C 85% 6.9 mph NW11.1 kmh NW 12.7 mph20.4 kmh 29.91 in1012.9 mb - 0.00 in0.0 mm 0.00 in0.0 mm
03:40 AM 39.0°F3.9°C 35.2°F1.8°C 86% 6.9 mph NW11.1 kmh NW 11.5 mph18.5 kmh 29.91 in1012.9 mb - 0.00 in0.0 mm 0.00 in0.0 mm
03:30 AM 39.1°F3.9°C 35.3°F1.8°C 86% 5.8 mph NW9.3 kmh NW 8.1 mph13.0 kmh 29.91 in1012.9 mb - 0.00 in0.0 mm 0.00 in0.0 mm
03:20 AM 39.2°F4.0°C 35.4°F1.9°C 86% 5.8 mph NW9.3 kmh NW 9.2 mph14.8 kmh 29.92 in1013.2 mb - 0.00 in0.0 mm 0.00 in0.0 mm
03:10 AM 39.3°F4.1°C 35.4°F1.9°C 86% 5.8 mph NW9.3 kmh NW 8.1 mph13.0 kmh 29.92 in1013.2 mb - 0.00 in0.0 mm 0.00 in0.0 mm
03:00 AM 39.3°F4.1°C 35.5°F1.9°C 86% 4.6 mph N7.4 kmh N 8.1 mph13.0 kmh 29.92 in1013.2 mb - 0.00 in0.0 mm 0.00 in0.0 mm
02:50 AM 39.4°F4.1°C 35.6°F2.0°C 86% 5.8 mph NW9.3 kmh NW 9.2 mph14.8 kmh 29.92 in1013.2 mb - 0.00 in0.0 mm 0.00 in0.0 mm
02:40 AM 39.5°F4.2°C 35.7°F2.1°C 86% 5.8 mph NW9.3 kmh NW 8.1 mph13.0 kmh 29.91 in1012.9 mb - 0.00 in0.0 mm 0.00 in0.0 mm
02:30 AM 39.6°F4.2°C 35.8°F2.1°C 86% 6.9 mph NW11.1 kmh NW 11.5 mph18.5 kmh 29.92 in1013.2 mb - 0.00 in0.0 mm 0.00 in0.0 mm
02:20 AM 39.7°F4.3°C 35.9°F2.2°C 86% 5.8 mph NW9.3 kmh NW 8.1 mph13.0 kmh 29.92 in1013.2 mb - 0.00 in0.0 mm 0.00 in0.0 mm
02:10 AM 39.9°F4.4°C 36.0°F2.2°C 86% 6.9 mph NW11.1 kmh NW 11.5 mph18.5 kmh 29.92 in1013.2 mb - 0.00 in0.0 mm 0.00 in0.0 mm
02:00 AM 40.0°F4.4°C 36.1°F2.3°C 86% 5.8 mph NW9.3 kmh NW 8.1 mph13.0 kmh 29.92 in1013.2 mb - 0.00 in0.0 mm 0.00 in0.0 mm
01:50 AM 39.9°F4.4°C 36.1°F2.3°C 86% 6.9 mph NW11.1 kmh NW 11.5 mph18.5 kmh 29.92 in1013.2 mb - 0.00 in0.0 mm 0.00 in0.0 mm
01:40 AM 39.8°F4.3°C 36.0°F2.2°C 86% 5.8 mph NNW9.3 kmh NNW 8.1 mph13.0 kmh 29.92 in1013.2 mb - 0.00 in0.0 mm 0.00 in0.0 mm
01:30 AM 39.5°F4.2°C 35.4°F1.9°C 85% 4.6 mph NW7.4 kmh NW 8.1 mph13.0 kmh 29.92 in1013.2 mb - 0.00 in0.0 mm 0.00 in0.0 mm
01:20 AM 39.4°F4.1°C 35.3°F1.8°C 85% 3.5 mph NNW5.6 kmh NNW 5.8 mph9.3 kmh 29.92 in1013.2 mb - 0.00 in0.0 mm 0.00 in0.0 mm
01:10 AM 38.9°F3.8°C 35.1°F1.7°C 86% 3.5 mph NNW5.6 kmh NNW 4.6 mph7.4 kmh 29.93 in1013.5 mb - 0.00 in0.0 mm 0.00 in0.0 mm
01:00 AM 38.5°F3.6°C 34.4°F1.3°C 85% Calm Calm -- 29.93 in1013.5 mb - 0.00 in0.0 mm 0.00 in0.0 mm
12:50 AM 38.9°F3.8°C 34.8°F1.6°C 85% Calm Calm -- 29.93 in1013.5 mb - 0.00 in0.0 mm 0.00 in0.0 mm
12:40 AM 39.3°F4.1°C 34.8°F1.6°C 84% Calm Calm -- 29.93 in1013.5 mb - 0.00 in0.0 mm 0.00 in0.0 mm
12:30 AM 39.9°F4.4°C 34.8°F1.6°C 82% Calm Calm -- 29.93 in1013.5 mb - 0.00 in0.0 mm 0.00 in0.0 mm
12:20 AM 40.9°F4.9°C 35.6°F2.0°C 81% Calm Calm 2.3 mph3.7 kmh 29.93 in1013.5 mb - 0.00 in0.0 mm 0.00 in0.0 mm
12:10 AM 41.4°F5.2°C 36.0°F2.2°C 81% 3.5 mph NNW5.6 kmh NNW 5.8 mph9.3 kmh 29.93 in1013.5 mb - 0.00 in0.0 mm 0.00 in0.0 mm
12:00 AM 41.5°F5.3°C 36.1°F2.3°C 81% 3.5 mph NW5.6 kmh NW 5.8 mph9.3 kmh 29.93 in1013.5 mb - 0.00 in0.0 mm 0.00 in0.0 mm